sensor_id;sensor_type;location;lat;lon;timestamp;P1;durP1;ratioP1;P2;durP2;ratioP2
5967;SDS011;3010;51.028;4.170;2023-12-20T00:01:43;16.53;;;5.37;;
5967;SDS011;3010;51.028;4.170;2023-12-20T00:04:09;25.87;;;5.93;;
5967;SDS011;3010;51.028;4.170;2023-12-20T00:06:36;24.10;;;6.62;;
5967;SDS011;3010;51.028;4.170;2023-12-20T00:09:02;17.20;;;5.67;;
5967;SDS011;3010;51.028;4.170;2023-12-20T00:11:29;24.87;;;5.80;;
5967;SDS011;3010;51.028;4.170;2023-12-20T00:13:56;26.98;;;7.10;;
5967;SDS011;3010;51.028;4.170;2023-12-20T00:16:22;26.20;;;5.97;;
5967;SDS011;3010;51.028;4.170;2023-12-20T00:18:49;23.67;;;5.97;;
5967;SDS011;3010;51.028;4.170;2023-12-20T00:21:15;16.17;;;5.23;;
5967;SDS011;3010;51.028;4.170;2023-12-20T00:23:42;23.03;;;5.47;;
5967;SDS011;3010;51.028;4.170;2023-12-20T00:26:09;21.77;;;6.40;;
5967;SDS011;3010;51.028;4.170;2023-12-20T00:28:35;17.73;;;5.83;;
5967;SDS011;3010;51.028;4.170;2023-12-20T00:31:02;26.13;;;6.13;;
5967;SDS011;3010;51.028;4.170;2023-12-20T00:33:28;20.77;;;5.83;;
5967;SDS011;3010;51.028;4.170;2023-12-20T00:35:55;27.97;;;5.87;;
5967;SDS011;3010;51.028;4.170;2023-12-20T00:38:21;24.23;;;6.40;;
5967;SDS011;3010;51.028;4.170;2023-12-20T00:40:48;23.95;;;7.10;;
5967;SDS011;3010;51.028;4.170;2023-12-20T00:43:15;27.07;;;6.57;;
5967;SDS011;3010;51.028;4.170;2023-12-20T00:45:41;24.60;;;6.20;;
5967;SDS011;3010;51.028;4.170;2023-12-20T00:48:08;22.83;;;6.80;;
5967;SDS011;3010;51.028;4.170;2023-12-20T00:50:34;27.80;;;7.40;;
5967;SDS011;3010;51.028;4.170;2023-12-20T00:53:01;28.87;;;7.20;;
5967;SDS011;3010;51.028;4.170;2023-12-20T00:55:28;19.13;;;7.07;;
5967;SDS011;3010;51.028;4.170;2023-12-20T00:57:54;23.17;;;7.77;;
5967;SDS011;3010;51.028;4.170;2023-12-20T01:00:21;21.17;;;7.00;;
5967;SDS011;3010;51.028;4.170;2023-12-20T01:02:47;24.47;;;7.20;;
5967;SDS011;3010;51.028;4.170;2023-12-20T01:05:14;26.83;;;7.13;;
5967;SDS011;3010;51.028;4.170;2023-12-20T01:07:40;29.37;;;7.63;;
5967;SDS011;3010;51.028;4.170;2023-12-20T01:10:07;24.30;;;9.20;;
5967;SDS011;3010;51.028;4.170;2023-12-20T01:12:35;28.30;;;7.53;;
5967;SDS011;3010;51.028;4.170;2023-12-20T01:15:00;30.30;;;8.27;;
5967;SDS011;3010;51.028;4.170;2023-12-20T01:17:27;33.93;;;8.30;;
5967;SDS011;3010;51.028;4.170;2023-12-20T01:19:53;38.03;;;8.47;;
5967;SDS011;3010;51.028;4.170;2023-12-20T01:22:20;33.27;;;10.20;;
5967;SDS011;3010;51.028;4.170;2023-12-20T01:24:47;29.67;;;7.83;;
5967;SDS011;3010;51.028;4.170;2023-12-20T01:27:13;33.83;;;9.85;;
5967;SDS011;3010;51.028;4.170;2023-12-20T01:29:40;30.50;;;9.07;;
5967;SDS011;3010;51.028;4.170;2023-12-20T01:32:06;29.87;;;9.63;;
5967;SDS011;3010;51.028;4.170;2023-12-20T01:34:33;40.50;;;10.63;;
5967;SDS011;3010;51.028;4.170;2023-12-20T01:36:59;34.13;;;9.33;;
5967;SDS011;3010;51.028;4.170;2023-12-20T01:39:26;35.77;;;10.40;;
5967;SDS011;3010;51.028;4.170;2023-12-20T01:41:53;43.63;;;10.40;;
5967;SDS011;3010;51.028;4.170;2023-12-20T01:44:19;53.93;;;11.80;;
5967;SDS011;3010;51.028;4.170;2023-12-20T01:46:46;41.30;;;10.00;;
5967;SDS011;3010;51.028;4.170;2023-12-20T01:49:12;39.15;;;12.48;;
5967;SDS011;3010;51.028;4.170;2023-12-20T01:51:39;39.47;;;11.75;;
5967;SDS011;3010;51.028;4.170;2023-12-20T01:54:06;35.80;;;10.13;;
5967;SDS011;3010;51.028;4.170;2023-12-20T01:56:32;34.63;;;11.60;;
5967;SDS011;3010;51.028;4.170;2023-12-20T01:58:59;30.00;;;9.23;;
5967;SDS011;3010;51.028;4.170;2023-12-20T02:01:26;39.47;;;9.30;;
5967;SDS011;3010;51.028;4.170;2023-12-20T02:03:52;31.50;;;8.83;;
5967;SDS011;3010;51.028;4.170;2023-12-20T02:06:19;39.97;;;9.03;;
5967;SDS011;3010;51.028;4.170;2023-12-20T02:08:45;34.33;;;10.40;;
5967;SDS011;3010;51.028;4.170;2023-12-20T02:11:12;27.90;;;8.33;;
5967;SDS011;3010;51.028;4.170;2023-12-20T02:13:38;37.93;;;8.07;;
5967;SDS011;3010;51.028;4.170;2023-12-20T02:16:05;30.53;;;7.77;;
5967;SDS011;3010;51.028;4.170;2023-12-20T02:18:32;28.63;;;7.90;;
5967;SDS011;3010;51.028;4.170;2023-12-20T02:20:58;31.77;;;8.10;;
5967;SDS011;3010;51.028;4.170;2023-12-20T02:23:25;24.70;;;7.63;;
5967;SDS011;3010;51.028;4.170;2023-12-20T02:25:51;29.00;;;7.03;;
5967;SDS011;3010;51.028;4.170;2023-12-20T02:28:18;21.73;;;7.33;;
5967;SDS011;3010;51.028;4.170;2023-12-20T02:30:45;26.07;;;7.37;;
5967;SDS011;3010;51.028;4.170;2023-12-20T02:33:12;27.08;;;8.10;;
5967;SDS011;3010;51.028;4.170;2023-12-20T02:35:38;20.43;;;6.90;;
5967;SDS011;3010;51.028;4.170;2023-12-20T02:38:04;29.23;;;7.10;;
5967;SDS011;3010;51.028;4.170;2023-12-20T02:40:31;18.97;;;6.50;;
5967;SDS011;3010;51.028;4.170;2023-12-20T02:42:58;32.70;;;8.48;;
5967;SDS011;3010;51.028;4.170;2023-12-20T02:45:24;19.93;;;6.20;;
5967;SDS011;3010;51.028;4.170;2023-12-20T02:47:51;28.13;;;7.60;;
5967;SDS011;3010;51.028;4.170;2023-12-20T02:50:18;22.17;;;7.50;;
5967;SDS011;3010;51.028;4.170;2023-12-20T02:52:44;18.40;;;6.80;;
5967;SDS011;3010;51.028;4.170;2023-12-20T02:55:11;26.77;;;7.33;;
5967;SDS011;3010;51.028;4.170;2023-12-20T02:57:37;29.67;;;8.50;;
5967;SDS011;3010;51.028;4.170;2023-12-20T03:00:04;23.57;;;7.20;;
5967;SDS011;3010;51.028;4.170;2023-12-20T03:02:31;22.17;;;6.43;;
5967;SDS011;3010;51.028;4.170;2023-12-20T03:04:57;29.67;;;7.67;;
5967;SDS011;3010;51.028;4.170;2023-12-20T03:07:24;23.67;;;8.15;;
5967;SDS011;3010;51.028;4.170;2023-12-20T03:09:51;28.63;;;8.00;;
5967;SDS011;3010;51.028;4.170;2023-12-20T03:12:17;36.50;;;8.10;;
5967;SDS011;3010;51.028;4.170;2023-12-20T03:14:44;24.40;;;7.40;;
5967;SDS011;3010;51.028;4.170;2023-12-20T03:17:10;28.60;;;7.43;;
5967;SDS011;3010;51.028;4.170;2023-12-20T03:19:37;28.50;;;7.47;;
5967;SDS011;3010;51.028;4.170;2023-12-20T03:22:04;39.17;;;7.60;;
5967;SDS011;3010;51.028;4.170;2023-12-20T03:24:30;25.67;;;7.60;;
5967;SDS011;3010;51.028;4.170;2023-12-20T03:26:57;21.80;;;7.03;;
5967;SDS011;3010;51.028;4.170;2023-12-20T03:29:23;19.47;;;6.97;;
5967;SDS011;3010;51.028;4.170;2023-12-20T03:31:50;26.07;;;6.60;;
5967;SDS011;3010;51.028;4.170;2023-12-20T03:34:17;28.83;;;8.65;;
5967;SDS011;3010;51.028;4.170;2023-12-20T03:36:43;22.60;;;7.70;;
5967;SDS011;3010;51.028;4.170;2023-12-20T03:39:10;25.67;;;7.63;;
5967;SDS011;3010;51.028;4.170;2023-12-20T03:41:36;24.73;;;8.07;;
5967;SDS011;3010;51.028;4.170;2023-12-20T03:44:03;22.03;;;7.07;;
5967;SDS011;3010;51.028;4.170;2023-12-20T03:46:29;26.33;;;8.20;;
5967;SDS011;3010;51.028;4.170;2023-12-20T03:48:56;32.92;;;9.18;;
5967;SDS011;3010;51.028;4.170;2023-12-20T03:51:23;35.50;;;8.50;;
5967;SDS011;3010;51.028;4.170;2023-12-20T03:53:49;23.58;;;8.35;;
5967;SDS011;3010;51.028;4.170;2023-12-20T03:56:16;25.13;;;6.97;;
5967;SDS011;3010;51.028;4.170;2023-12-20T03:58:42;31.17;;;8.90;;
5967;SDS011;3010;51.028;4.170;2023-12-20T04:01:09;27.08;;;8.13;;
5967;SDS011;3010;51.028;4.170;2023-12-20T04:03:36;26.57;;;7.40;;
5967;SDS011;3010;51.028;4.170;2023-12-20T04:06:02;27.40;;;7.33;;
5967;SDS011;3010;51.028;4.170;2023-12-20T04:08:29;18.83;;;7.50;;
5967;SDS011;3010;51.028;4.170;2023-12-20T04:10:55;19.63;;;6.83;;
5967;SDS011;3010;51.028;4.170;2023-12-20T04:13:22;23.70;;;8.98;;
5967;SDS011;3010;51.028;4.170;2023-12-20T04:15:49;21.30;;;6.43;;
5967;SDS011;3010;51.028;4.170;2023-12-20T04:18:15;26.37;;;8.80;;
5967;SDS011;3010;51.028;4.170;2023-12-20T04:20:42;24.50;;;7.00;;
5967;SDS011;3010;51.028;4.170;2023-12-20T04:23:08;21.93;;;7.27;;
5967;SDS011;3010;51.028;4.170;2023-12-20T04:25:35;25.90;;;6.37;;
5967;SDS011;3010;51.028;4.170;2023-12-20T04:28:01;23.63;;;6.53;;
5967;SDS011;3010;51.028;4.170;2023-12-20T04:30:28;27.45;;;8.05;;
5967;SDS011;3010;51.028;4.170;2023-12-20T04:32:55;20.07;;;6.60;;
5967;SDS011;3010;51.028;4.170;2023-12-20T04:35:21;31.47;;;7.17;;
5967;SDS011;3010;51.028;4.170;2023-12-20T04:37:48;23.40;;;6.33;;
5967;SDS011;3010;51.028;4.170;2023-12-20T04:40:14;30.87;;;7.27;;
5967;SDS011;3010;51.028;4.170;2023-12-20T04:42:41;23.13;;;6.93;;
5967;SDS011;3010;51.028;4.170;2023-12-20T04:45:08;22.60;;;6.20;;
5967;SDS011;3010;51.028;4.170;2023-12-20T04:47:34;24.03;;;6.67;;
5967;SDS011;3010;51.028;4.170;2023-12-20T04:50:01;26.93;;;7.17;;
5967;SDS011;3010;51.028;4.170;2023-12-20T04:52:27;28.00;;;7.27;;
5967;SDS011;3010;51.028;4.170;2023-12-20T04:54:54;17.83;;;6.90;;
5967;SDS011;3010;51.028;4.170;2023-12-20T04:57:21;26.73;;;6.70;;
5967;SDS011;3010;51.028;4.170;2023-12-20T04:59:47;32.17;;;7.70;;
5967;SDS011;3010;51.028;4.170;2023-12-20T05:02:14;30.63;;;7.70;;
5967;SDS011;3010;51.028;4.170;2023-12-20T05:04:40;18.50;;;6.97;;
5967;SDS011;3010;51.028;4.170;2023-12-20T05:07:07;27.43;;;6.83;;
5967;SDS011;3010;51.028;4.170;2023-12-20T05:09:34;30.40;;;7.50;;
5967;SDS011;3010;51.028;4.170;2023-12-20T05:12:00;20.60;;;5.90;;
5967;SDS011;3010;51.028;4.170;2023-12-20T05:14:27;31.20;;;5.90;;
5967;SDS011;3010;51.028;4.170;2023-12-20T05:16:53;27.97;;;6.97;;
5967;SDS011;3010;51.028;4.170;2023-12-20T05:19:20;26.07;;;7.43;;
5967;SDS011;3010;51.028;4.170;2023-12-20T05:21:46;26.07;;;6.60;;
5967;SDS011;3010;51.028;4.170;2023-12-20T05:24:13;23.57;;;6.17;;
5967;SDS011;3010;51.028;4.170;2023-12-20T05:26:40;28.57;;;7.57;;
5967;SDS011;3010;51.028;4.170;2023-12-20T05:29:06;22.73;;;6.67;;
5967;SDS011;3010;51.028;4.170;2023-12-20T05:31:33;22.30;;;6.87;;
5967;SDS011;3010;51.028;4.170;2023-12-20T05:33:59;22.80;;;7.27;;
5967;SDS011;3010;51.028;4.170;2023-12-20T05:36:26;23.70;;;7.30;;
5967;SDS011;3010;51.028;4.170;2023-12-20T05:38:53;21.53;;;7.10;;
5967;SDS011;3010;51.028;4.170;2023-12-20T05:41:19;25.48;;;7.32;;
5967;SDS011;3010;51.028;4.170;2023-12-20T05:43:46;26.00;;;6.40;;
5967;SDS011;3010;51.028;4.170;2023-12-20T05:46:12;23.35;;;7.57;;
5967;SDS011;3010;51.028;4.170;2023-12-20T05:48:39;21.20;;;7.30;;
5967;SDS011;3010;51.028;4.170;2023-12-20T05:51:06;23.17;;;6.83;;
5967;SDS011;3010;51.028;4.170;2023-12-20T05:53:32;25.42;;;8.30;;
5967;SDS011;3010;51.028;4.170;2023-12-20T05:55:59;24.50;;;7.67;;
5967;SDS011;3010;51.028;4.170;2023-12-20T05:58:25;28.53;;;7.40;;
5967;SDS011;3010;51.028;4.170;2023-12-20T06:00:52;31.27;;;7.97;;
5967;SDS011;3010;51.028;4.170;2023-12-20T06:03:18;30.73;;;7.53;;
5967;SDS011;3010;51.028;4.170;2023-12-20T06:05:45;27.03;;;7.03;;
5967;SDS011;3010;51.028;4.170;2023-12-20T06:08:12;20.53;;;7.33;;
5967;SDS011;3010;51.028;4.170;2023-12-20T06:10:38;32.27;;;7.73;;
5967;SDS011;3010;51.028;4.170;2023-12-20T06:13:05;21.33;;;7.37;;
5967;SDS011;3010;51.028;4.170;2023-12-20T06:15:32;19.67;;;6.80;;
5967;SDS011;3010;51.028;4.170;2023-12-20T06:17:58;18.33;;;6.40;;
5967;SDS011;3010;51.028;4.170;2023-12-20T06:20:25;23.87;;;7.70;;
5967;SDS011;3010;51.028;4.170;2023-12-20T06:22:51;20.07;;;7.13;;
5967;SDS011;3010;51.028;4.170;2023-12-20T06:25:18;21.57;;;7.47;;
5967;SDS011;3010;51.028;4.170;2023-12-20T06:27:44;27.00;;;6.90;;
5967;SDS011;3010;51.028;4.170;2023-12-20T06:30:11;31.80;;;7.00;;
5967;SDS011;3010;51.028;4.170;2023-12-20T06:32:37;21.05;;;6.80;;
5967;SDS011;3010;51.028;4.170;2023-12-20T06:35:04;24.57;;;6.10;;
5967;SDS011;3010;51.028;4.170;2023-12-20T06:37:31;24.07;;;6.63;;
5967;SDS011;3010;51.028;4.170;2023-12-20T06:39:57;19.77;;;5.83;;
5967;SDS011;3010;51.028;4.170;2023-12-20T06:42:24;25.10;;;6.37;;
5967;SDS011;3010;51.028;4.170;2023-12-20T06:44:50;21.63;;;6.23;;
5967;SDS011;3010;51.028;4.170;2023-12-20T06:47:17;21.57;;;5.77;;
5967;SDS011;3010;51.028;4.170;2023-12-20T06:49:44;16.73;;;5.97;;
5967;SDS011;3010;51.028;4.170;2023-12-20T06:52:10;24.50;;;6.60;;
5967;SDS011;3010;51.028;4.170;2023-12-20T06:54:37;22.40;;;6.33;;
5967;SDS011;3010;51.028;4.170;2023-12-20T06:57:03;22.97;;;6.57;;
5967;SDS011;3010;51.028;4.170;2023-12-20T06:59:30;18.30;;;5.53;;
5967;SDS011;3010;51.028;4.170;2023-12-20T07:01:57;15.40;;;4.73;;
5967;SDS011;3010;51.028;4.170;2023-12-20T07:04:23;13.13;;;4.17;;
5967;SDS011;3010;51.028;4.170;2023-12-20T07:06:50;17.73;;;5.37;;
5967;SDS011;3010;51.028;4.170;2023-12-20T07:09:20;12.47;;;4.80;;
5967;SDS011;3010;51.028;4.170;2023-12-20T07:11:46;15.33;;;4.70;;
5967;SDS011;3010;51.028;4.170;2023-12-20T07:14:13;17.30;;;4.83;;
5967;SDS011;3010;51.028;4.170;2023-12-20T07:16:39;22.92;;;6.53;;
5967;SDS011;3010;51.028;4.170;2023-12-20T07:19:06;14.63;;;4.97;;
5967;SDS011;3010;51.028;4.170;2023-12-20T07:21:33;22.25;;;6.12;;
5967;SDS011;3010;51.028;4.170;2023-12-20T07:23:59;18.07;;;4.73;;
5967;SDS011;3010;51.028;4.170;2023-12-20T07:26:26;18.43;;;6.00;;
5967;SDS011;3010;51.028;4.170;2023-12-20T07:28:52;20.57;;;5.00;;
5967;SDS011;3010;51.028;4.170;2023-12-20T07:31:19;19.90;;;5.13;;
5967;SDS011;3010;51.028;4.170;2023-12-20T07:33:45;21.93;;;5.13;;
5967;SDS011;3010;51.028;4.170;2023-12-20T07:36:12;14.87;;;5.53;;
5967;SDS011;3010;51.028;4.170;2023-12-20T07:38:39;9.07;;;4.23;;
5967;SDS011;3010;51.028;4.170;2023-12-20T07:41:05;22.90;;;5.70;;
5967;SDS011;3010;51.028;4.170;2023-12-20T07:43:32;19.02;;;5.68;;
5967;SDS011;3010;51.028;4.170;2023-12-20T07:46:03;18.70;;;5.57;;
5967;SDS011;3010;51.028;4.170;2023-12-20T07:48:25;18.70;;;5.30;;
5967;SDS011;3010;51.028;4.170;2023-12-20T07:50:52;17.97;;;5.20;;
5967;SDS011;3010;51.028;4.170;2023-12-20T07:53:18;18.60;;;5.03;;
5967;SDS011;3010;51.028;4.170;2023-12-20T07:55:45;22.97;;;5.47;;
5967;SDS011;3010;51.028;4.170;2023-12-20T07:58:11;15.97;;;4.63;;
5967;SDS011;3010;51.028;4.170;2023-12-20T08:00:38;23.10;;;5.93;;
5967;SDS011;3010;51.028;4.170;2023-12-20T08:03:04;12.70;;;4.40;;
5967;SDS011;3010;51.028;4.170;2023-12-20T08:05:31;15.37;;;5.20;;
5967;SDS011;3010;51.028;4.170;2023-12-20T08:07:58;16.67;;;5.07;;
5967;SDS011;3010;51.028;4.170;2023-12-20T08:10:24;17.03;;;6.23;;
5967;SDS011;3010;51.028;4.170;2023-12-20T08:12:51;22.17;;;5.60;;
5967;SDS011;3010;51.028;4.170;2023-12-20T08:15:17;24.13;;;6.33;;
5967;SDS011;3010;51.028;4.170;2023-12-20T08:17:44;18.60;;;4.80;;
5967;SDS011;3010;51.028;4.170;2023-12-20T08:20:11;21.23;;;5.07;;
5967;SDS011;3010;51.028;4.170;2023-12-20T08:22:37;14.50;;;5.17;;
5967;SDS011;3010;51.028;4.170;2023-12-20T08:25:04;24.03;;;5.50;;
5967;SDS011;3010;51.028;4.170;2023-12-20T08:27:30;13.77;;;4.90;;
5967;SDS011;3010;51.028;4.170;2023-12-20T08:29:57;16.63;;;5.17;;
5967;SDS011;3010;51.028;4.170;2023-12-20T08:32:27;17.92;;;6.18;;
5967;SDS011;3010;51.028;4.170;2023-12-20T08:34:53;14.77;;;5.17;;
5967;SDS011;3010;51.028;4.170;2023-12-20T08:37:20;24.57;;;5.47;;
5967;SDS011;3010;51.028;4.170;2023-12-20T08:39:46;15.03;;;4.67;;
5967;SDS011;3010;51.028;4.170;2023-12-20T08:42:13;15.67;;;5.40;;
5967;SDS011;3010;51.028;4.170;2023-12-20T08:44:40;18.33;;;5.30;;
5967;SDS011;3010;51.028;4.170;2023-12-20T08:47:06;16.13;;;5.10;;
5967;SDS011;3010;51.028;4.170;2023-12-20T08:49:33;16.47;;;4.63;;
5967;SDS011;3010;51.028;4.170;2023-12-20T08:51:59;17.07;;;5.57;;
5967;SDS011;3010;51.028;4.170;2023-12-20T08:54:26;25.57;;;5.33;;
5967;SDS011;3010;51.028;4.170;2023-12-20T08:56:52;14.47;;;5.23;;
5967;SDS011;3010;51.028;4.170;2023-12-20T08:59:19;12.70;;;5.10;;
5967;SDS011;3010;51.028;4.170;2023-12-20T09:01:46;17.47;;;6.03;;
5967;SDS011;3010;51.028;4.170;2023-12-20T09:04:12;19.67;;;5.67;;
5967;SDS011;3010;51.028;4.170;2023-12-20T09:06:39;18.93;;;5.53;;
5967;SDS011;3010;51.028;4.170;2023-12-20T09:09:05;21.97;;;5.70;;
5967;SDS011;3010;51.028;4.170;2023-12-20T09:11:32;14.40;;;4.97;;
5967;SDS011;3010;51.028;4.170;2023-12-20T09:13:59;16.83;;;5.03;;
5967;SDS011;3010;51.028;4.170;2023-12-20T09:16:25;14.90;;;4.67;;
5967;SDS011;3010;51.028;4.170;2023-12-20T09:18:52;17.20;;;4.57;;
5967;SDS011;3010;51.028;4.170;2023-12-20T09:21:18;14.70;;;4.47;;
5967;SDS011;3010;51.028;4.170;2023-12-20T09:23:45;23.43;;;5.20;;
5967;SDS011;3010;51.028;4.170;2023-12-20T09:26:12;18.20;;;4.63;;
5967;SDS011;3010;51.028;4.170;2023-12-20T09:28:38;13.40;;;4.87;;
5967;SDS011;3010;51.028;4.170;2023-12-20T09:31:05;15.93;;;5.53;;
5967;SDS011;3010;51.028;4.170;2023-12-20T09:33:31;17.63;;;4.33;;
5967;SDS011;3010;51.028;4.170;2023-12-20T09:35:58;16.27;;;4.03;;
5967;SDS011;3010;51.028;4.170;2023-12-20T09:38:24;20.70;;;5.77;;
5967;SDS011;3010;51.028;4.170;2023-12-20T09:40:51;15.93;;;5.10;;
5967;SDS011;3010;51.028;4.170;2023-12-20T09:43:18;12.20;;;4.87;;
5967;SDS011;3010;51.028;4.170;2023-12-20T09:45:45;16.23;;;4.60;;
5967;SDS011;3010;51.028;4.170;2023-12-20T09:48:11;23.10;;;4.73;;
5967;SDS011;3010;51.028;4.170;2023-12-20T09:50:37;12.27;;;5.20;;
5967;SDS011;3010;51.028;4.170;2023-12-20T09:53:04;13.70;;;4.77;;
5967;SDS011;3010;51.028;4.170;2023-12-20T09:55:31;12.23;;;4.50;;
5967;SDS011;3010;51.028;4.170;2023-12-20T09:57:57;15.83;;;5.60;;
5967;SDS011;3010;51.028;4.170;2023-12-20T10:00:24;22.83;;;4.87;;
5967;SDS011;3010;51.028;4.170;2023-12-20T10:02:55;20.60;;;5.37;;
5967;SDS011;3010;51.028;4.170;2023-12-20T10:05:17;13.30;;;4.10;;
5967;SDS011;3010;51.028;4.170;2023-12-20T10:07:46;14.40;;;4.73;;
5967;SDS011;3010;51.028;4.170;2023-12-20T10:10:13;13.90;;;4.60;;
5967;SDS011;3010;51.028;4.170;2023-12-20T10:12:40;13.73;;;5.53;;
5967;SDS011;3010;51.028;4.170;2023-12-20T10:15:06;13.17;;;4.47;;
5967;SDS011;3010;51.028;4.170;2023-12-20T10:17:33;16.92;;;5.25;;
5967;SDS011;3010;51.028;4.170;2023-12-20T10:19:59;19.10;;;5.07;;
5967;SDS011;3010;51.028;4.170;2023-12-20T10:22:26;18.33;;;4.50;;
5967;SDS011;3010;51.028;4.170;2023-12-20T10:24:52;12.53;;;4.73;;
5967;SDS011;3010;51.028;4.170;2023-12-20T10:27:19;9.77;;;4.17;;
5967;SDS011;3010;51.028;4.170;2023-12-20T10:29:46;16.30;;;4.90;;
5967;SDS011;3010;51.028;4.170;2023-12-20T10:32:22;15.93;;;5.13;;
5967;SDS011;3010;51.028;4.170;2023-12-20T10:34:48;12.23;;;5.20;;
5967;SDS011;3010;51.028;4.170;2023-12-20T10:37:14;12.30;;;4.63;;
5967;SDS011;3010;51.028;4.170;2023-12-20T10:39:41;16.40;;;5.67;;
5967;SDS011;3010;51.028;4.170;2023-12-20T10:42:08;18.93;;;5.83;;
5967;SDS011;3010;51.028;4.170;2023-12-20T10:44:34;17.13;;;5.03;;
5967;SDS011;3010;51.028;4.170;2023-12-20T10:47:01;18.13;;;4.80;;
5967;SDS011;3010;51.028;4.170;2023-12-20T10:49:27;20.23;;;4.70;;
5967;SDS011;3010;51.028;4.170;2023-12-20T10:51:54;19.17;;;4.37;;
5967;SDS011;3010;51.028;4.170;2023-12-20T10:54:20;16.50;;;4.97;;
5967;SDS011;3010;51.028;4.170;2023-12-20T10:56:47;17.97;;;4.60;;
5967;SDS011;3010;51.028;4.170;2023-12-20T10:59:13;14.60;;;4.90;;
5967;SDS011;3010;51.028;4.170;2023-12-20T11:01:40;19.80;;;4.77;;
5967;SDS011;3010;51.028;4.170;2023-12-20T11:04:08;15.63;;;4.83;;
5967;SDS011;3010;51.028;4.170;2023-12-20T11:06:40;25.47;;;5.80;;
5967;SDS011;3010;51.028;4.170;2023-12-20T11:14:42;15.63;;;4.73;;
5967;SDS011;3010;51.028;4.170;2023-12-20T11:17:14;14.70;;;5.00;;
5967;SDS011;3010;51.028;4.170;2023-12-20T11:22:25;17.67;;;4.07;;
5967;SDS011;3010;51.028;4.170;2023-12-20T11:24:52;16.87;;;4.97;;
5967;SDS011;3010;51.028;4.170;2023-12-20T11:27:18;16.43;;;5.10;;
5967;SDS011;3010;51.028;4.170;2023-12-20T11:29:51;13.10;;;4.53;;
5967;SDS011;3010;51.028;4.170;2023-12-20T11:32:38;17.60;;;4.80;;
5967;SDS011;3010;51.028;4.170;2023-12-20T11:34:56;17.87;;;4.87;;
5967;SDS011;3010;51.028;4.170;2023-12-20T11:37:21;15.50;;;4.80;;
5967;SDS011;3010;51.028;4.170;2023-12-20T11:40:04;21.50;;;5.40;;
5967;SDS011;3010;51.028;4.170;2023-12-20T11:42:26;21.30;;;4.50;;
5967;SDS011;3010;51.028;4.170;2023-12-20T11:44:53;13.13;;;4.50;;
5967;SDS011;3010;51.028;4.170;2023-12-20T11:47:20;27.53;;;4.77;;
5967;SDS011;3010;51.028;4.170;2023-12-20T11:49:47;15.07;;;4.87;;
5967;SDS011;3010;51.028;4.170;2023-12-20T11:52:13;13.17;;;4.90;;
5967;SDS011;3010;51.028;4.170;2023-12-20T11:54:39;16.27;;;4.62;;
5967;SDS011;3010;51.028;4.170;2023-12-20T11:57:06;14.70;;;4.47;;
5967;SDS011;3010;51.028;4.170;2023-12-20T11:59:33;17.23;;;4.43;;
5967;SDS011;3010;51.028;4.170;2023-12-20T12:01:59;10.63;;;4.27;;
5967;SDS011;3010;51.028;4.170;2023-12-20T12:04:28;16.03;;;4.63;;
5967;SDS011;3010;51.028;4.170;2023-12-20T12:06:52;16.60;;;5.18;;
5967;SDS011;3010;51.028;4.170;2023-12-20T12:09:19;15.87;;;4.83;;
5967;SDS011;3010;51.028;4.170;2023-12-20T12:11:45;9.60;;;4.33;;
5967;SDS011;3010;51.028;4.170;2023-12-20T12:14:12;12.33;;;4.63;;
5967;SDS011;3010;51.028;4.170;2023-12-20T12:16:39;16.43;;;4.33;;
5967;SDS011;3010;51.028;4.170;2023-12-20T12:19:05;18.17;;;4.70;;
5967;SDS011;3010;51.028;4.170;2023-12-20T12:21:32;17.10;;;4.40;;
5967;SDS011;3010;51.028;4.170;2023-12-20T12:24:08;12.03;;;3.97;;
5967;SDS011;3010;51.028;4.170;2023-12-20T12:26:34;15.37;;;4.13;;
5967;SDS011;3010;51.028;4.170;2023-12-20T12:29:00;14.53;;;4.37;;
5967;SDS011;3010;51.028;4.170;2023-12-20T12:31:27;14.13;;;4.80;;
5967;SDS011;3010;51.028;4.170;2023-12-20T12:33:54;19.87;;;4.70;;
5967;SDS011;3010;51.028;4.170;2023-12-20T12:36:20;17.83;;;4.70;;
5967;SDS011;3010;51.028;4.170;2023-12-20T12:38:47;11.73;;;4.00;;
5967;SDS011;3010;51.028;4.170;2023-12-20T12:41:13;16.87;;;4.60;;
5967;SDS011;3010;51.028;4.170;2023-12-20T12:43:43;10.90;;;4.40;;
5967;SDS011;3010;51.028;4.170;2023-12-20T12:46:09;10.30;;;3.63;;
5967;SDS011;3010;51.028;4.170;2023-12-20T12:48:36;10.93;;;3.73;;
5967;SDS011;3010;51.028;4.170;2023-12-20T12:51:03;17.07;;;4.53;;
5967;SDS011;3010;51.028;4.170;2023-12-20T12:53:29;16.27;;;5.05;;
5967;SDS011;3010;51.028;4.170;2023-12-20T12:55:56;14.10;;;4.47;;
5967;SDS011;3010;51.028;4.170;2023-12-20T12:58:22;15.60;;;4.43;;
5967;SDS011;3010;51.028;4.170;2023-12-20T13:00:49;17.63;;;4.13;;
5967;SDS011;3010;51.028;4.170;2023-12-20T13:03:16;13.27;;;4.27;;
5967;SDS011;3010;51.028;4.170;2023-12-20T13:05:42;10.07;;;4.30;;
5967;SDS011;3010;51.028;4.170;2023-12-20T13:08:09;15.73;;;5.30;;
5967;SDS011;3010;51.028;4.170;2023-12-20T13:10:35;17.17;;;4.50;;
5967;SDS011;3010;51.028;4.170;2023-12-20T13:13:02;21.47;;;4.70;;
5967;SDS011;3010;51.028;4.170;2023-12-20T13:15:28;13.20;;;4.20;;
5967;SDS011;3010;51.028;4.170;2023-12-20T13:17:55;15.50;;;5.40;;
5967;SDS011;3010;51.028;4.170;2023-12-20T13:20:22;14.10;;;4.37;;
5967;SDS011;3010;51.028;4.170;2023-12-20T13:22:48;13.70;;;4.37;;
5967;SDS011;3010;51.028;4.170;2023-12-20T13:25:15;21.13;;;6.30;;
5967;SDS011;3010;51.028;4.170;2023-12-20T13:27:41;19.73;;;6.27;;
5967;SDS011;3010;51.028;4.170;2023-12-20T13:30:08;18.80;;;6.27;;
5967;SDS011;3010;51.028;4.170;2023-12-20T13:32:35;15.90;;;5.43;;
5967;SDS011;3010;51.028;4.170;2023-12-20T13:35:01;7.27;;;4.20;;
5967;SDS011;3010;51.028;4.170;2023-12-20T13:37:28;12.73;;;3.80;;
5967;SDS011;3010;51.028;4.170;2023-12-20T13:39:54;13.37;;;4.03;;
5967;SDS011;3010;51.028;4.170;2023-12-20T13:42:21;21.30;;;4.30;;
5967;SDS011;3010;51.028;4.170;2023-12-20T13:44:48;13.63;;;4.40;;
5967;SDS011;3010;51.028;4.170;2023-12-20T13:47:14;12.47;;;4.63;;
5967;SDS011;3010;51.028;4.170;2023-12-20T13:49:41;21.03;;;5.60;;
5967;SDS011;3010;51.028;4.170;2023-12-20T13:52:07;12.67;;;4.30;;
5967;SDS011;3010;51.028;4.170;2023-12-20T13:54:34;13.30;;;4.93;;
5967;SDS011;3010;51.028;4.170;2023-12-20T13:57:00;17.87;;;4.27;;
5967;SDS011;3010;51.028;4.170;2023-12-20T13:59:27;14.30;;;4.03;;
5967;SDS011;3010;51.028;4.170;2023-12-20T14:01:54;14.83;;;4.10;;
5967;SDS011;3010;51.028;4.170;2023-12-20T14:04:20;14.07;;;3.80;;
5967;SDS011;3010;51.028;4.170;2023-12-20T14:06:47;11.00;;;4.10;;
5967;SDS011;3010;51.028;4.170;2023-12-20T14:09:13;19.57;;;5.00;;
5967;SDS011;3010;51.028;4.170;2023-12-20T14:11:40;14.40;;;4.53;;
5967;SDS011;3010;51.028;4.170;2023-12-20T14:14:07;13.80;;;4.80;;
5967;SDS011;3010;51.028;4.170;2023-12-20T14:16:34;18.03;;;5.03;;
5967;SDS011;3010;51.028;4.170;2023-12-20T14:19:00;11.13;;;4.50;;
5967;SDS011;3010;51.028;4.170;2023-12-20T14:21:26;13.40;;;4.68;;
5967;SDS011;3010;51.028;4.170;2023-12-20T14:23:53;13.57;;;5.07;;
5967;SDS011;3010;51.028;4.170;2023-12-20T14:26:20;17.80;;;5.60;;
5967;SDS011;3010;51.028;4.170;2023-12-20T14:28:46;10.10;;;4.40;;
5967;SDS011;3010;51.028;4.170;2023-12-20T14:31:13;13.47;;;5.67;;
5967;SDS011;3010;51.028;4.170;2023-12-20T14:33:39;15.43;;;5.10;;
5967;SDS011;3010;51.028;4.170;2023-12-20T14:36:06;20.93;;;5.70;;
5967;SDS011;3010;51.028;4.170;2023-12-20T14:38:33;13.53;;;4.80;;
5967;SDS011;3010;51.028;4.170;2023-12-20T14:40:59;16.97;;;4.57;;
5967;SDS011;3010;51.028;4.170;2023-12-20T14:43:26;9.87;;;3.93;;
5967;SDS011;3010;51.028;4.170;2023-12-20T14:45:52;16.05;;;4.97;;
5967;SDS011;3010;51.028;4.170;2023-12-20T14:48:19;12.20;;;4.32;;
5967;SDS011;3010;51.028;4.170;2023-12-20T14:50:45;12.63;;;3.70;;
5967;SDS011;3010;51.028;4.170;2023-12-20T14:53:12;14.77;;;3.60;;
5967;SDS011;3010;51.028;4.170;2023-12-20T14:55:39;9.37;;;3.70;;
5967;SDS011;3010;51.028;4.170;2023-12-20T14:58:05;13.93;;;4.53;;
5967;SDS011;3010;51.028;4.170;2023-12-20T15:00:32;12.17;;;3.93;;
5967;SDS011;3010;51.028;4.170;2023-12-20T15:02:58;22.23;;;4.37;;
5967;SDS011;3010;51.028;4.170;2023-12-20T15:05:25;9.60;;;4.23;;